sensor_id;sensor_type;location;lat;lon;timestamp;P1;durP1;ratioP1;P2;durP2;ratioP2
3733;SDS011;1882;52.256;8.874;2023-04-12T00:00:59;7.60;;;2.50;;
3733;SDS011;1882;52.256;8.874;2023-04-12T00:03:26;6.93;;;2.10;;
3733;SDS011;1882;52.256;8.874;2023-04-12T00:05:53;4.10;;;2.10;;
3733;SDS011;1882;52.256;8.874;2023-04-12T00:08:23;3.90;;;2.13;;
3733;SDS011;1882;52.256;8.874;2023-04-12T00:10:52;4.93;;;2.17;;
3733;SDS011;1882;52.256;8.874;2023-04-12T00:13:18;16.50;;;2.13;;
3733;SDS011;1882;52.256;8.874;2023-04-12T00:15:45;4.27;;;2.30;;
3733;SDS011;1882;52.256;8.874;2023-04-12T00:18:12;5.77;;;2.33;;
3733;SDS011;1882;52.256;8.874;2023-04-12T00:20:38;7.30;;;2.23;;
3733;SDS011;1882;52.256;8.874;2023-04-12T00:23:05;7.40;;;2.70;;
3733;SDS011;1882;52.256;8.874;2023-04-12T00:25:32;7.10;;;2.17;;
3733;SDS011;1882;52.256;8.874;2023-04-12T00:27:59;9.93;;;2.43;;
3733;SDS011;1882;52.256;8.874;2023-04-12T00:30:25;6.30;;;2.40;;
3733;SDS011;1882;52.256;8.874;2023-04-12T00:32:53;3.83;;;2.20;;
3733;SDS011;1882;52.256;8.874;2023-04-12T00:35:20;6.50;;;2.50;;
3733;SDS011;1882;52.256;8.874;2023-04-12T00:37:46;6.30;;;2.50;;
3733;SDS011;1882;52.256;8.874;2023-04-12T00:40:13;5.43;;;2.00;;
3733;SDS011;1882;52.256;8.874;2023-04-12T00:42:40;10.50;;;2.80;;
3733;SDS011;1882;52.256;8.874;2023-04-12T00:45:07;4.43;;;1.90;;
3733;SDS011;1882;52.256;8.874;2023-04-12T00:47:35;7.80;;;2.23;;
3733;SDS011;1882;52.256;8.874;2023-04-12T00:50:05;6.67;;;2.40;;
3733;SDS011;1882;52.256;8.874;2023-04-12T00:52:33;6.83;;;2.30;;
3733;SDS011;1882;52.256;8.874;2023-04-12T00:55:02;4.93;;;1.90;;
3733;SDS011;1882;52.256;8.874;2023-04-12T00:57:31;8.80;;;2.57;;
3733;SDS011;1882;52.256;8.874;2023-04-12T01:00:00;7.20;;;2.53;;
3733;SDS011;1882;52.256;8.874;2023-04-12T01:02:29;10.87;;;2.20;;
3733;SDS011;1882;52.256;8.874;2023-04-12T01:04:56;7.73;;;2.20;;
3733;SDS011;1882;52.256;8.874;2023-04-12T01:07:46;6.27;;;2.30;;
3733;SDS011;1882;52.256;8.874;2023-04-12T01:16:03;5.90;;;2.60;;
3733;SDS011;1882;52.256;8.874;2023-04-12T01:19:01;6.87;;;2.33;;
3733;SDS011;1882;52.256;8.874;2023-04-12T01:24:21;10.30;;;2.30;;
3733;SDS011;1882;52.256;8.874;2023-04-12T01:26:52;6.47;;;2.40;;
3733;SDS011;1882;52.256;8.874;2023-04-12T01:29:23;4.27;;;2.30;;
3733;SDS011;1882;52.256;8.874;2023-04-12T01:32:01;7.77;;;2.10;;
3733;SDS011;1882;52.256;8.874;2023-04-12T01:34:29;7.17;;;2.30;;
3733;SDS011;1882;52.256;8.874;2023-04-12T01:36:57;6.37;;;2.17;;
3733;SDS011;1882;52.256;8.874;2023-04-12T01:39:27;6.13;;;2.30;;
3733;SDS011;1882;52.256;8.874;2023-04-12T01:41:54;7.90;;;2.33;;
3733;SDS011;1882;52.256;8.874;2023-04-12T01:44:22;8.17;;;2.90;;
3733;SDS011;1882;52.256;8.874;2023-04-12T01:46:50;5.83;;;2.50;;
3733;SDS011;1882;52.256;8.874;2023-04-12T01:49:18;6.00;;;2.40;;
3733;SDS011;1882;52.256;8.874;2023-04-12T01:51:50;4.10;;;2.30;;
3733;SDS011;1882;52.256;8.874;2023-04-12T01:54:22;3.20;;;2.23;;
3733;SDS011;1882;52.256;8.874;2023-04-12T01:56:59;4.77;;;2.50;;
3733;SDS011;1882;52.256;8.874;2023-04-12T01:59:31;6.20;;;2.63;;
3733;SDS011;1882;52.256;8.874;2023-04-12T02:02:01;4.90;;;2.57;;
3733;SDS011;1882;52.256;8.874;2023-04-12T02:04:30;4.70;;;2.20;;
3733;SDS011;1882;52.256;8.874;2023-04-12T02:06:58;4.67;;;2.20;;
3733;SDS011;1882;52.256;8.874;2023-04-12T02:09:25;6.10;;;2.57;;
3733;SDS011;1882;52.256;8.874;2023-04-12T02:11:51;4.23;;;2.33;;
3733;SDS011;1882;52.256;8.874;2023-04-12T02:14:18;8.00;;;2.83;;
3733;SDS011;1882;52.256;8.874;2023-04-12T02:16:45;7.60;;;2.40;;
3733;SDS011;1882;52.256;8.874;2023-04-12T02:19:11;6.10;;;2.33;;
3733;SDS011;1882;52.256;8.874;2023-04-12T02:24:11;5.70;;;2.50;;
3733;SDS011;1882;52.256;8.874;2023-04-12T02:26:38;9.57;;;2.53;;
3733;SDS011;1882;52.256;8.874;2023-04-12T02:29:07;6.40;;;2.80;;
3733;SDS011;1882;52.256;8.874;2023-04-12T02:31:36;7.00;;;2.60;;
3733;SDS011;1882;52.256;8.874;2023-04-12T02:34:07;7.63;;;3.67;;
3733;SDS011;1882;52.256;8.874;2023-04-12T02:36:36;5.77;;;2.70;;
3733;SDS011;1882;52.256;8.874;2023-04-12T02:39:03;7.77;;;2.53;;
3733;SDS011;1882;52.256;8.874;2023-04-12T02:41:33;6.83;;;2.60;;
3733;SDS011;1882;52.256;8.874;2023-04-12T02:44:01;3.40;;;2.03;;
3733;SDS011;1882;52.256;8.874;2023-04-12T02:46:29;7.67;;;2.60;;
3733;SDS011;1882;52.256;8.874;2023-04-12T02:48:57;7.70;;;2.40;;
3733;SDS011;1882;52.256;8.874;2023-04-12T02:51:37;7.23;;;2.20;;
3733;SDS011;1882;52.256;8.874;2023-04-12T02:54:05;9.43;;;2.20;;
3733;SDS011;1882;52.256;8.874;2023-04-12T02:56:49;7.87;;;2.70;;
3733;SDS011;1882;52.256;8.874;2023-04-12T02:59:33;5.30;;;2.40;;
3733;SDS011;1882;52.256;8.874;2023-04-12T03:02:10;5.17;;;2.37;;
3733;SDS011;1882;52.256;8.874;2023-04-12T03:04:37;5.97;;;2.30;;
3733;SDS011;1882;52.256;8.874;2023-04-12T03:07:10;5.90;;;2.37;;
3733;SDS011;1882;52.256;8.874;2023-04-12T03:09:57;3.20;;;2.30;;
3733;SDS011;1882;52.256;8.874;2023-04-12T03:12:24;3.03;;;1.90;;
3733;SDS011;1882;52.256;8.874;2023-04-12T03:15:03;6.33;;;2.47;;
3733;SDS011;1882;52.256;8.874;2023-04-12T03:17:30;11.83;;;2.90;;
3733;SDS011;1882;52.256;8.874;2023-04-12T03:20:02;3.33;;;2.20;;
3733;SDS011;1882;52.256;8.874;2023-04-12T03:22:38;4.70;;;2.60;;
3733;SDS011;1882;52.256;8.874;2023-04-12T03:25:08;6.27;;;2.40;;
3733;SDS011;1882;52.256;8.874;2023-04-12T03:27:40;5.20;;;2.33;;
3733;SDS011;1882;52.256;8.874;2023-04-12T03:30:08;6.83;;;2.20;;
3733;SDS011;1882;52.256;8.874;2023-04-12T03:32:38;5.53;;;2.33;;
3733;SDS011;1882;52.256;8.874;2023-04-12T03:35:07;7.10;;;2.50;;
3733;SDS011;1882;52.256;8.874;2023-04-12T03:37:36;8.33;;;2.40;;
3733;SDS011;1882;52.256;8.874;2023-04-12T03:40:06;7.57;;;2.47;;
3733;SDS011;1882;52.256;8.874;2023-04-12T03:42:33;5.63;;;2.30;;
3733;SDS011;1882;52.256;8.874;2023-04-12T03:45:09;8.73;;;2.53;;
3733;SDS011;1882;52.256;8.874;2023-04-12T03:47:39;4.07;;;2.60;;
3733;SDS011;1882;52.256;8.874;2023-04-12T03:50:07;10.03;;;2.57;;
3733;SDS011;1882;52.256;8.874;2023-04-12T03:52:44;7.93;;;2.80;;
3733;SDS011;1882;52.256;8.874;2023-04-12T03:55:12;5.27;;;2.47;;
3733;SDS011;1882;52.256;8.874;2023-04-12T03:57:39;4.27;;;2.00;;
3733;SDS011;1882;52.256;8.874;2023-04-12T04:00:07;11.53;;;2.50;;
3733;SDS011;1882;52.256;8.874;2023-04-12T04:03:02;6.83;;;2.37;;
3733;SDS011;1882;52.256;8.874;2023-04-12T04:05:35;4.40;;;2.20;;
3733;SDS011;1882;52.256;8.874;2023-04-12T04:08:02;6.20;;;2.50;;
3733;SDS011;1882;52.256;8.874;2023-04-12T04:10:42;12.70;;;2.37;;
3733;SDS011;1882;52.256;8.874;2023-04-12T04:13:09;7.30;;;2.73;;
3733;SDS011;1882;52.256;8.874;2023-04-12T04:15:36;3.10;;;2.27;;
3733;SDS011;1882;52.256;8.874;2023-04-12T04:18:03;6.33;;;2.30;;
3733;SDS011;1882;52.256;8.874;2023-04-12T04:20:30;9.03;;;2.53;;
3733;SDS011;1882;52.256;8.874;2023-04-12T04:22:58;8.30;;;2.30;;
3733;SDS011;1882;52.256;8.874;2023-04-12T04:25:24;13.13;;;2.80;;
3733;SDS011;1882;52.256;8.874;2023-04-12T04:28:05;4.17;;;2.30;;
3733;SDS011;1882;52.256;8.874;2023-04-12T04:30:33;4.70;;;2.30;;
3733;SDS011;1882;52.256;8.874;2023-04-12T04:33:07;7.60;;;2.40;;
3733;SDS011;1882;52.256;8.874;2023-04-12T04:35:37;5.23;;;2.23;;
3733;SDS011;1882;52.256;8.874;2023-04-12T04:38:19;12.00;;;2.70;;
3733;SDS011;1882;52.256;8.874;2023-04-12T04:40:53;6.20;;;2.43;;
3733;SDS011;1882;52.256;8.874;2023-04-12T04:43:28;4.47;;;2.30;;
3733;SDS011;1882;52.256;8.874;2023-04-12T04:45:59;6.43;;;2.30;;
3733;SDS011;1882;52.256;8.874;2023-04-12T04:48:27;6.00;;;2.37;;
3733;SDS011;1882;52.256;8.874;2023-04-12T04:50:55;6.83;;;2.40;;
3733;SDS011;1882;52.256;8.874;2023-04-12T04:53:21;7.00;;;2.37;;
3733;SDS011;1882;52.256;8.874;2023-04-12T04:55:55;5.40;;;2.33;;
3733;SDS011;1882;52.256;8.874;2023-04-12T04:58:29;3.53;;;2.37;;
3733;SDS011;1882;52.256;8.874;2023-04-12T05:00:57;7.00;;;2.87;;
3733;SDS011;1882;52.256;8.874;2023-04-12T05:03:27;7.63;;;2.60;;
3733;SDS011;1882;52.256;8.874;2023-04-12T05:05:56;4.17;;;2.33;;
3733;SDS011;1882;52.256;8.874;2023-04-12T05:08:23;4.33;;;2.20;;
3733;SDS011;1882;52.256;8.874;2023-04-12T05:10:50;5.27;;;2.20;;
3733;SDS011;1882;52.256;8.874;2023-04-12T05:13:20;5.10;;;2.63;;
3733;SDS011;1882;52.256;8.874;2023-04-12T05:15:47;8.27;;;2.40;;
3733;SDS011;1882;52.256;8.874;2023-04-12T05:18:14;5.03;;;2.30;;
3733;SDS011;1882;52.256;8.874;2023-04-12T05:20:41;5.10;;;2.70;;
3733;SDS011;1882;52.256;8.874;2023-04-12T05:23:08;9.60;;;2.30;;
3733;SDS011;1882;52.256;8.874;2023-04-12T05:25:35;7.03;;;2.10;;
3733;SDS011;1882;52.256;8.874;2023-04-12T05:28:05;9.00;;;2.30;;
3733;SDS011;1882;52.256;8.874;2023-04-12T05:30:36;9.63;;;2.80;;
3733;SDS011;1882;52.256;8.874;2023-04-12T05:33:06;11.93;;;3.00;;
3733;SDS011;1882;52.256;8.874;2023-04-12T05:35:36;4.67;;;2.50;;
3733;SDS011;1882;52.256;8.874;2023-04-12T05:38:03;4.50;;;2.30;;
3733;SDS011;1882;52.256;8.874;2023-04-12T05:40:31;4.30;;;2.27;;
3733;SDS011;1882;52.256;8.874;2023-04-12T05:43:00;6.23;;;2.50;;
3733;SDS011;1882;52.256;8.874;2023-04-12T05:45:29;3.60;;;2.50;;
3733;SDS011;1882;52.256;8.874;2023-04-12T05:47:57;16.03;;;2.40;;
3733;SDS011;1882;52.256;8.874;2023-04-12T05:50:24;5.00;;;2.13;;
3733;SDS011;1882;52.256;8.874;2023-04-12T05:52:51;4.83;;;2.53;;
3733;SDS011;1882;52.256;8.874;2023-04-12T05:55:23;9.03;;;2.80;;
3733;SDS011;1882;52.256;8.874;2023-04-12T05:57:50;4.00;;;2.10;;
3733;SDS011;1882;52.256;8.874;2023-04-12T06:00:18;7.43;;;2.67;;
3733;SDS011;1882;52.256;8.874;2023-04-12T06:02:47;5.50;;;2.30;;
3733;SDS011;1882;52.256;8.874;2023-04-12T06:05:16;10.20;;;3.33;;
3733;SDS011;1882;52.256;8.874;2023-04-12T06:07:44;4.93;;;2.30;;
3733;SDS011;1882;52.256;8.874;2023-04-12T06:10:14;5.13;;;2.40;;
3733;SDS011;1882;52.256;8.874;2023-04-12T06:12:46;5.87;;;2.50;;
3733;SDS011;1882;52.256;8.874;2023-04-12T06:15:13;7.97;;;3.20;;
3733;SDS011;1882;52.256;8.874;2023-04-12T06:17:40;4.30;;;2.30;;
3733;SDS011;1882;52.256;8.874;2023-04-12T06:20:06;3.60;;;2.53;;
3733;SDS011;1882;52.256;8.874;2023-04-12T06:22:36;4.77;;;2.63;;
3733;SDS011;1882;52.256;8.874;2023-04-12T06:25:04;5.30;;;2.00;;
3733;SDS011;1882;52.256;8.874;2023-04-12T06:27:31;3.40;;;2.30;;
3733;SDS011;1882;52.256;8.874;2023-04-12T06:29:58;5.07;;;2.17;;
3733;SDS011;1882;52.256;8.874;2023-04-12T06:32:25;5.83;;;2.50;;
3733;SDS011;1882;52.256;8.874;2023-04-12T06:34:53;4.27;;;2.50;;
3733;SDS011;1882;52.256;8.874;2023-04-12T06:37:20;5.07;;;2.03;;
3733;SDS011;1882;52.256;8.874;2023-04-12T06:39:47;5.70;;;2.27;;
3733;SDS011;1882;52.256;8.874;2023-04-12T06:42:14;4.43;;;1.97;;
3733;SDS011;1882;52.256;8.874;2023-04-12T06:44:41;8.23;;;2.30;;
3733;SDS011;1882;52.256;8.874;2023-04-12T06:47:07;6.30;;;2.70;;
3733;SDS011;1882;52.256;8.874;2023-04-12T06:49:34;3.30;;;2.50;;
3733;SDS011;1882;52.256;8.874;2023-04-12T06:52:01;4.47;;;2.47;;
3733;SDS011;1882;52.256;8.874;2023-04-12T06:54:28;4.17;;;2.53;;
3733;SDS011;1882;52.256;8.874;2023-04-12T06:56:54;2.60;;;2.13;;
3733;SDS011;1882;52.256;8.874;2023-04-12T06:59:22;5.83;;;2.10;;
3733;SDS011;1882;52.256;8.874;2023-04-12T07:01:49;5.90;;;2.67;;
3733;SDS011;1882;52.256;8.874;2023-04-12T07:04:16;7.37;;;2.60;;
3733;SDS011;1882;52.256;8.874;2023-04-12T07:06:43;6.20;;;2.53;;
3733;SDS011;1882;52.256;8.874;2023-04-12T07:09:10;3.93;;;2.20;;
3733;SDS011;1882;52.256;8.874;2023-04-12T07:11:39;6.17;;;2.63;;
3733;SDS011;1882;52.256;8.874;2023-04-12T07:14:05;3.57;;;2.63;;
3733;SDS011;1882;52.256;8.874;2023-04-12T07:16:32;4.50;;;2.47;;
3733;SDS011;1882;52.256;8.874;2023-04-12T07:18:59;4.97;;;2.47;;
3733;SDS011;1882;52.256;8.874;2023-04-12T07:21:26;7.70;;;3.00;;
3733;SDS011;1882;52.256;8.874;2023-04-12T07:23:53;5.60;;;2.73;;
3733;SDS011;1882;52.256;8.874;2023-04-12T07:26:21;6.50;;;2.60;;
3733;SDS011;1882;52.256;8.874;2023-04-12T07:28:48;4.37;;;2.60;;
3733;SDS011;1882;52.256;8.874;2023-04-12T07:31:15;4.63;;;2.63;;
3733;SDS011;1882;52.256;8.874;2023-04-12T07:33:41;4.20;;;2.67;;
3733;SDS011;1882;52.256;8.874;2023-04-12T07:36:09;3.37;;;2.70;;
3733;SDS011;1882;52.256;8.874;2023-04-12T07:38:36;6.43;;;2.90;;
3733;SDS011;1882;52.256;8.874;2023-04-12T07:41:03;7.70;;;3.30;;
3733;SDS011;1882;52.256;8.874;2023-04-12T07:43:30;4.23;;;2.90;;
3733;SDS011;1882;52.256;8.874;2023-04-12T07:45:56;6.33;;;3.23;;
3733;SDS011;1882;52.256;8.874;2023-04-12T07:48:23;6.40;;;2.90;;
3733;SDS011;1882;52.256;8.874;2023-04-12T07:50:50;6.30;;;3.00;;
3733;SDS011;1882;52.256;8.874;2023-04-12T07:53:21;4.23;;;3.10;;
3733;SDS011;1882;52.256;8.874;2023-04-12T07:55:52;8.17;;;3.13;;
3733;SDS011;1882;52.256;8.874;2023-04-12T07:58:20;4.60;;;2.90;;
3733;SDS011;1882;52.256;8.874;2023-04-12T08:00:48;7.73;;;3.53;;
3733;SDS011;1882;52.256;8.874;2023-04-12T08:03:15;6.40;;;3.23;;
3733;SDS011;1882;52.256;8.874;2023-04-12T08:05:43;5.00;;;3.83;;
3733;SDS011;1882;52.256;8.874;2023-04-12T08:08:10;4.90;;;2.80;;
3733;SDS011;1882;52.256;8.874;2023-04-12T08:10:37;5.43;;;3.50;;
3733;SDS011;1882;52.256;8.874;2023-04-12T08:13:04;5.83;;;3.47;;
3733;SDS011;1882;52.256;8.874;2023-04-12T08:15:32;7.03;;;3.27;;
3733;SDS011;1882;52.256;8.874;2023-04-12T08:17:59;4.17;;;3.00;;
3733;SDS011;1882;52.256;8.874;2023-04-12T08:20:26;5.97;;;3.20;;
3733;SDS011;1882;52.256;8.874;2023-04-12T08:22:53;5.30;;;3.27;;
3733;SDS011;1882;52.256;8.874;2023-04-12T08:25:20;4.73;;;3.07;;
3733;SDS011;1882;52.256;8.874;2023-04-12T08:27:48;3.90;;;3.10;;
3733;SDS011;1882;52.256;8.874;2023-04-12T08:30:16;4.37;;;3.10;;
3733;SDS011;1882;52.256;8.874;2023-04-12T08:32:43;5.07;;;2.60;;
3733;SDS011;1882;52.256;8.874;2023-04-12T08:35:10;5.57;;;2.53;;
3733;SDS011;1882;52.256;8.874;2023-04-12T08:37:37;6.43;;;2.60;;
3733;SDS011;1882;52.256;8.874;2023-04-12T08:40:07;3.57;;;2.40;;
3733;SDS011;1882;52.256;8.874;2023-04-12T08:42:34;7.47;;;2.33;;
3733;SDS011;1882;52.256;8.874;2023-04-12T08:45:05;7.20;;;2.70;;
3733;SDS011;1882;52.256;8.874;2023-04-12T08:47:36;3.87;;;2.40;;
3733;SDS011;1882;52.256;8.874;2023-04-12T08:50:04;5.33;;;3.43;;
3733;SDS011;1882;52.256;8.874;2023-04-12T08:52:39;5.57;;;2.20;;
3733;SDS011;1882;52.256;8.874;2023-04-12T08:55:07;3.77;;;2.47;;
3733;SDS011;1882;52.256;8.874;2023-04-12T08:57:38;6.70;;;2.47;;
3733;SDS011;1882;52.256;8.874;2023-04-12T09:00:07;3.90;;;2.43;;
3733;SDS011;1882;52.256;8.874;2023-04-12T09:02:35;3.00;;;2.30;;
3733;SDS011;1882;52.256;8.874;2023-04-12T09:05:04;3.80;;;1.90;;
3733;SDS011;1882;52.256;8.874;2023-04-12T09:07:32;2.20;;;1.90;;
3733;SDS011;1882;52.256;8.874;2023-04-12T09:09:59;3.50;;;2.23;;
3733;SDS011;1882;52.256;8.874;2023-04-12T09:12:26;3.40;;;2.30;;
3733;SDS011;1882;52.256;8.874;2023-04-12T09:15:09;2.77;;;2.07;;
3733;SDS011;1882;52.256;8.874;2023-04-12T09:17:41;2.80;;;2.50;;
3733;SDS011;1882;52.256;8.874;2023-04-12T09:22:38;3.73;;;2.27;;
3733;SDS011;1882;52.256;8.874;2023-04-12T09:25:10;4.43;;;3.27;;
3733;SDS011;1882;52.256;8.874;2023-04-12T09:30:14;4.47;;;2.97;;
3733;SDS011;1882;52.256;8.874;2023-04-12T09:32:42;4.87;;;2.20;;
3733;SDS011;1882;52.256;8.874;2023-04-12T09:35:09;3.33;;;2.30;;
3733;SDS011;1882;52.256;8.874;2023-04-12T09:37:36;2.50;;;2.30;;
3733;SDS011;1882;52.256;8.874;2023-04-12T09:40:04;6.10;;;2.07;;
3733;SDS011;1882;52.256;8.874;2023-04-12T09:42:32;2.70;;;2.30;;
3733;SDS011;1882;52.256;8.874;2023-04-12T09:45:01;2.23;;;2.00;;
3733;SDS011;1882;52.256;8.874;2023-04-12T09:47:44;5.93;;;2.20;;
3733;SDS011;1882;52.256;8.874;2023-04-12T09:50:21;3.93;;;2.10;;
3733;SDS011;1882;52.256;8.874;2023-04-12T09:52:54;2.87;;;1.97;;
3733;SDS011;1882;52.256;8.874;2023-04-12T09:55:22;2.37;;;2.17;;
3733;SDS011;1882;52.256;8.874;2023-04-12T09:57:51;3.70;;;2.30;;
3733;SDS011;1882;52.256;8.874;2023-04-12T10:00:20;3.30;;;2.17;;
3733;SDS011;1882;52.256;8.874;2023-04-12T10:02:49;4.70;;;2.40;;
3733;SDS011;1882;52.256;8.874;2023-04-12T10:05:18;4.07;;;2.27;;
3733;SDS011;1882;52.256;8.874;2023-04-12T10:07:47;2.87;;;2.20;;
3733;SDS011;1882;52.256;8.874;2023-04-12T10:10:14;2.30;;;2.10;;
3733;SDS011;1882;52.256;8.874;2023-04-12T10:12:43;2.23;;;2.03;;
3733;SDS011;1882;52.256;8.874;2023-04-12T10:15:11;3.93;;;2.10;;
3733;SDS011;1882;52.256;8.874;2023-04-12T10:17:43;5.93;;;2.50;;
3733;SDS011;1882;52.256;8.874;2023-04-12T10:20:27;5.63;;;2.33;;
3733;SDS011;1882;52.256;8.874;2023-04-12T10:22:55;2.80;;;2.17;;
3733;SDS011;1882;52.256;8.874;2023-04-12T10:25:26;3.77;;;2.20;;
3733;SDS011;1882;52.256;8.874;2023-04-12T10:27:55;5.50;;;2.20;;
3733;SDS011;1882;52.256;8.874;2023-04-12T10:35:51;2.60;;;1.80;;
3733;SDS011;1882;52.256;8.874;2023-04-12T10:38:18;2.63;;;1.80;;
3733;SDS011;1882;52.256;8.874;2023-04-12T10:49:14;2.63;;;2.30;;
3733;SDS011;1882;52.256;8.874;2023-04-12T10:56:52;1.70;;;1.60;;
3733;SDS011;1882;52.256;8.874;2023-04-12T11:02:17;3.37;;;2.03;;
3733;SDS011;1882;52.256;8.874;2023-04-12T11:05:09;3.80;;;2.13;;
3733;SDS011;1882;52.256;8.874;2023-04-12T11:07:55;2.87;;;2.07;;
3733;SDS011;1882;52.256;8.874;2023-04-12T11:10:37;3.83;;;1.80;;
3733;SDS011;1882;52.256;8.874;2023-04-12T11:13:05;1.83;;;1.73;;
3733;SDS011;1882;52.256;8.874;2023-04-12T11:15:34;2.20;;;2.00;;
3733;SDS011;1882;52.256;8.874;2023-04-12T11:18:10;1.50;;;1.40;;
3733;SDS011;1882;52.256;8.874;2023-04-12T11:20:38;1.90;;;1.80;;
3733;SDS011;1882;52.256;8.874;2023-04-12T11:23:08;2.10;;;1.90;;
3733;SDS011;1882;52.256;8.874;2023-04-12T11:25:37;2.20;;;2.00;;
3733;SDS011;1882;52.256;8.874;2023-04-12T11:28:04;2.70;;;2.00;;
3733;SDS011;1882;52.256;8.874;2023-04-12T11:30:53;2.70;;;2.10;;
3733;SDS011;1882;52.256;8.874;2023-04-12T11:33:29;2.17;;;1.80;;
3733;SDS011;1882;52.256;8.874;2023-04-12T11:36:04;3.97;;;2.00;;
3733;SDS011;1882;52.256;8.874;2023-04-12T11:38:40;2.23;;;2.03;;
3733;SDS011;1882;52.256;8.874;2023-04-12T11:41:08;4.03;;;2.30;;
3733;SDS011;1882;52.256;8.874;2023-04-12T11:43:43;2.40;;;2.20;;
3733;SDS011;1882;52.256;8.874;2023-04-12T11:46:11;3.33;;;2.40;;
3733;SDS011;1882;52.256;8.874;2023-04-12T11:48:37;2.40;;;2.20;;
3733;SDS011;1882;52.256;8.874;2023-04-12T11:51:20;1.70;;;1.60;;
3733;SDS011;1882;52.256;8.874;2023-04-12T11:53:53;3.00;;;2.30;;
3733;SDS011;1882;52.256;8.874;2023-04-12T11:56:21;2.43;;;2.20;;
3733;SDS011;1882;52.256;8.874;2023-04-12T11:58:48;1.90;;;1.80;;
3733;SDS011;1882;52.256;8.874;2023-04-12T12:01:16;2.30;;;2.10;;
3733;SDS011;1882;52.256;8.874;2023-04-12T12:03:51;3.90;;;2.30;;
3733;SDS011;1882;52.256;8.874;2023-04-12T12:06:18;2.33;;;2.13;;
3733;SDS011;1882;52.256;8.874;2023-04-12T12:08:47;3.23;;;2.00;;
3733;SDS011;1882;52.256;8.874;2023-04-12T12:11:17;2.37;;;2.17;;
3733;SDS011;1882;52.256;8.874;2023-04-12T12:13:45;2.20;;;2.00;;
3733;SDS011;1882;52.256;8.874;2023-04-12T12:16:13;2.10;;;2.00;;
3733;SDS011;1882;52.256;8.874;2023-04-12T12:18:45;2.20;;;2.00;;
3733;SDS011;1882;52.256;8.874;2023-04-12T12:21:17;2.30;;;2.10;;
3733;SDS011;1882;52.256;8.874;2023-04-12T12:23:45;3.00;;;2.10;;
3733;SDS011;1882;52.256;8.874;2023-04-12T12:26:22;2.87;;;2.53;;
3733;SDS011;1882;52.256;8.874;2023-04-12T12:28:51;2.50;;;2.30;;
3733;SDS011;1882;52.256;8.874;2023-04-12T12:31:19;2.33;;;2.13;;
3733;SDS011;1882;52.256;8.874;2023-04-12T12:33:48;3.60;;;2.30;;
3733;SDS011;1882;52.256;8.874;2023-04-12T12:36:18;2.10;;;2.00;;
3733;SDS011;1882;52.256;8.874;2023-04-12T12:38:46;2.50;;;2.30;;
3733;SDS011;1882;52.256;8.874;2023-04-12T12:43:48;3.73;;;2.70;;
3733;SDS011;1882;52.256;8.874;2023-04-12T12:46:17;2.60;;;2.10;;
3733;SDS011;1882;52.256;8.874;2023-04-12T12:48:45;2.30;;;2.10;;
3733;SDS011;1882;52.256;8.874;2023-04-12T12:51:13;2.13;;;2.03;;
3733;SDS011;1882;52.256;8.874;2023-04-12T12:53:43;2.30;;;2.13;;
3733;SDS011;1882;52.256;8.874;2023-04-12T12:56:10;2.43;;;2.20;;
3733;SDS011;1882;52.256;8.874;2023-04-12T12:58:38;2.30;;;2.10;;
3733;SDS011;1882;52.256;8.874;2023-04-12T13:01:06;2.63;;;2.20;;
3733;SDS011;1882;52.256;8.874;2023-04-12T13:03:36;2.63;;;2.30;;
3733;SDS011;1882;52.256;8.874;2023-04-12T13:06:03;3.53;;;2.60;;
3733;SDS011;1882;52.256;8.874;2023-04-12T13:08:30;5.93;;;2.30;;
3733;SDS011;1882;52.256;8.874;2023-04-12T13:11:00;2.77;;;2.27;;
3733;SDS011;1882;52.256;8.874;2023-04-12T13:13:28;2.13;;;2.03;;
3733;SDS011;1882;52.256;8.874;2023-04-12T13:15:55;3.63;;;2.67;;
3733;SDS011;1882;52.256;8.874;2023-04-12T13:18:22;2.70;;;2.50;;
3733;SDS011;1882;52.256;8.874;2023-04-12T13:20:51;3.07;;;2.87;;
3733;SDS011;1882;52.256;8.874;2023-04-12T13:23:18;2.10;;;2.00;;
3733;SDS011;1882;52.256;8.874;2023-04-12T13:25:54;2.63;;;2.43;;
3733;SDS011;1882;52.256;8.874;2023-04-12T13:28:21;4.17;;;2.40;;
3733;SDS011;1882;52.256;8.874;2023-04-12T13:30:47;2.30;;;2.10;;
3733;SDS011;1882;52.256;8.874;2023-04-12T13:33:25;6.10;;;4.13;;
3733;SDS011;1882;52.256;8.874;2023-04-12T13:35:52;4.27;;;3.87;;
3733;SDS011;1882;52.256;8.874;2023-04-12T13:38:21;3.57;;;3.10;;
3733;SDS011;1882;52.256;8.874;2023-04-12T13:40:50;2.60;;;2.40;;
3733;SDS011;1882;52.256;8.874;2023-04-12T13:43:17;3.43;;;2.80;;
3733;SDS011;1882;52.256;8.874;2023-04-12T13:45:46;3.10;;;2.80;;
3733;SDS011;1882;52.256;8.874;2023-04-12T13:48:14;4.10;;;2.63;;
3733;SDS011;1882;52.256;8.874;2023-04-12T13:50:41;2.60;;;2.30;;
3733;SDS011;1882;52.256;8.874;2023-04-12T13:53:10;2.90;;;2.70;;
3733;SDS011;1882;52.256;8.874;2023-04-12T13:55:36;2.90;;;2.70;;
3733;SDS011;1882;52.256;8.874;2023-04-12T13:58:03;4.00;;;2.93;;
3733;SDS011;1882;52.256;8.874;2023-04-12T14:00:30;4.37;;;2.77;;
3733;SDS011;1882;52.256;8.874;2023-04-12T14:02:56;2.80;;;2.50;;
3733;SDS011;1882;52.256;8.874;2023-04-12T14:05:23;2.90;;;2.70;;
3733;SDS011;1882;52.256;8.874;2023-04-12T14:07:50;2.50;;;2.40;;
3733;SDS011;1882;52.256;8.874;2023-04-12T14:10:17;3.17;;;2.47;;
3733;SDS011;1882;52.256;8.874;2023-04-12T14:12:44;2.50;;;2.30;;
3733;SDS011;1882;52.256;8.874;2023-04-12T14:15:11;2.63;;;2.43;;
3733;SDS011;1882;52.256;8.874;2023-04-12T14:17:37;2.37;;;2.17;;
3733;SDS011;1882;52.256;8.874;2023-04-12T14:20:05;2.53;;;2.33;;
3733;SDS011;1882;52.256;8.874;2023-04-12T14:22:35;2.63;;;2.43;;
3733;SDS011;1882;52.256;8.874;2023-04-12T14:25:02;4.27;;;3.30;;
3733;SDS011;1882;52.256;8.874;2023-04-12T14:27:29;5.23;;;2.80;;
3733;SDS011;1882;52.256;8.874;2023-04-12T14:29:56;2.60;;;2.40;;
3733;SDS011;1882;52.256;8.874;2023-04-12T14:32:22;2.40;;;2.20;;
3733;SDS011;1882;52.256;8.874;2023-04-12T14:34:49;3.00;;;2.57;;
3733;SDS011;1882;52.256;8.874;2023-04-12T14:37:16;2.93;;;2.73;;
3733;SDS011;1882;52.256;8.874;2023-04-12T14:39:42;2.70;;;2.50;;
3733;SDS011;1882;52.256;8.874;2023-04-12T14:42:09;2.60;;;2.40;;
3733;SDS011;1882;52.256;8.874;2023-04-12T14:44:36;2.80;;;2.60;;
3733;SDS011;1882;52.256;8.874;2023-04-12T14:47:03;2.80;;;2.60;;
3733;SDS011;1882;52.256;8.874;2023-04-12T14:49:29;2.90;;;2.70;;
3733;SDS011;1882;52.256;8.874;2023-04-12T14:51:58;3.30;;;3.10;;
3733;SDS011;1882;52.256;8.874;2023-04-12T14:54:25;2.80;;;2.60;;
3733;SDS011;1882;52.256;8.874;2023-04-12T14:56:51;3.47;;;3.17;;
3733;SDS011;1882;52.256;8.874;2023-04-12T14:59:21;3.20;;;2.90;;
3733;SDS011;1882;52.256;8.874;2023-04-12T15:01:48;2.90;;;2.70;;
3733;SDS011;1882;52.256;8.874;2023-04-12T15:04:18;3.13;;;2.90;;
3733;SDS011;1882;52.256;8.874;2023-04-12T15:06:44;3.30;;;3.00;;
3733;SDS011;1882;52.256;8.874;2023-04-12T15:09:12;3.30;;;3.00;;
3733;SDS011;1882;52.256;8.874;2023-04-12T15:11:39;4.73;;;3.37;;
3733;SDS011;1882;52.256;8.874;2023-04-12T15:14:12;6.43;;;4.13;;
3733;SDS011;1882;52.256;8.874;2023-04-12T15:16:45;4.20;;;3.60;;
3733;SDS011;1882;52.256;8.874;2023-04-12T15:19:20;8.60;;;5.87;;
3733;SDS011;1882;52.256;8.874;2023-04-12T15:21:50;5.43;;;3.87;;
3733;SDS011;1882;52.256;8.874;2023-04-12T15:24:17;3.80;;;3.50;;
3733;SDS011;1882;52.256;8.874;2023-04-12T15:26:49;3.23;;;3.03;;
3733;SDS011;1882;52.256;8.874;2023-04-12T15:29:18;4.83;;;3.30;;
3733;SDS011;1882;52.256;8.874;2023-04-12T15:31:46;3.83;;;3.53;;
3733;SDS011;1882;52.256;8.874;2023-04-12T15:34:19;3.80;;;3.40;;
3733;SDS011;1882;52.256;8.874;2023-04-12T15:36:48;4.30;;;3.90;;
3733;SDS011;1882;52.256;8.874;2023-04-12T15:39:15;4.83;;;3.90;;
3733;SDS011;1882;52.256;8.874;2023-04-12T15:41:41;4.07;;;3.67;;
3733;SDS011;1882;52.256;8.874;2023-04-12T15:44:11;4.03;;;3.70;;
3733;SDS011;1882;52.256;8.874;2023-04-12T15:46:42;4.40;;;4.00;;
3733;SDS011;1882;52.256;8.874;2023-04-12T15:49:09;4.47;;;4.07;;
3733;SDS011;1882;52.256;8.874;2023-04-12T15:51:41;4.97;;;4.47;;
3733;SDS011;1882;52.256;8.874;2023-04-12T15:54:08;4.90;;;4.30;;
3733;SDS011;1882;52.256;8.874;2023-04-12T15:56:37;6.00;;;4.70;;
3733;SDS011;1882;52.256;8.874;2023-04-12T15:59:05;5.57;;;4.90;;
3733;SDS011;1882;52.256;8.874;2023-04-12T16:01:37;5.17;;;4.67;;
3733;SDS011;1882;52.256;8.874;2023-04-12T16:04:10;5.50;;;5.00;;
3733;SDS011;1882;52.256;8.874;2023-04-12T16:06:37;5.73;;;5.17;;
3733;SDS011;1882;52.256;8.874;2023-04-12T16:09:07;5.27;;;4.77;;